sensor_id;sensor_type;location;lat;lon;timestamp;P1;durP1;ratioP1;P2;durP2;ratioP2
12467;SDS011;57850;52.922;6.256;2023-10-09T00:01:01;10.55;;;5.82;;
12467;SDS011;57850;52.922;6.256;2023-10-09T00:03:35;10.45;;;5.63;;
12467;SDS011;57850;52.922;6.256;2023-10-09T00:06:03;10.10;;;4.43;;
12467;SDS011;57850;52.922;6.256;2023-10-09T00:08:31;9.23;;;4.90;;
12467;SDS011;57850;52.922;6.256;2023-10-09T00:11:00;10.98;;;5.45;;
12467;SDS011;57850;52.922;6.256;2023-10-09T00:13:41;9.05;;;5.05;;
12467;SDS011;57850;52.922;6.256;2023-10-09T00:16:16;10.80;;;5.80;;
12467;SDS011;57850;52.922;6.256;2023-10-09T00:18:48;11.70;;;5.47;;
12467;SDS011;57850;52.922;6.256;2023-10-09T00:21:14;9.75;;;5.50;;
12467;SDS011;57850;52.922;6.256;2023-10-09T00:23:46;10.50;;;5.55;;
12467;SDS011;57850;52.922;6.256;2023-10-09T00:26:20;12.40;;;6.20;;
12467;SDS011;57850;52.922;6.256;2023-10-09T00:28:48;13.05;;;6.95;;
12467;SDS011;57850;52.922;6.256;2023-10-09T00:31:16;12.98;;;6.78;;
12467;SDS011;57850;52.922;6.256;2023-10-09T00:33:52;16.30;;;7.85;;
12467;SDS011;57850;52.922;6.256;2023-10-09T00:36:19;18.08;;;7.65;;
12467;SDS011;57850;52.922;6.256;2023-10-09T00:38:54;14.02;;;7.32;;
12467;SDS011;57850;52.922;6.256;2023-10-09T00:41:25;9.75;;;6.45;;
12467;SDS011;57850;52.922;6.256;2023-10-09T00:43:54;14.95;;;7.45;;
12467;SDS011;57850;52.922;6.256;2023-10-09T00:46:24;16.60;;;7.40;;
12467;SDS011;57850;52.922;6.256;2023-10-09T00:48:53;12.15;;;7.47;;
12467;SDS011;57850;52.922;6.256;2023-10-09T00:51:22;15.63;;;8.15;;
12467;SDS011;57850;52.922;6.256;2023-10-09T00:53:52;13.73;;;6.63;;
12467;SDS011;57850;52.922;6.256;2023-10-09T00:56:24;13.60;;;8.07;;
12467;SDS011;57850;52.922;6.256;2023-10-09T00:59:04;13.23;;;7.97;;
12467;SDS011;57850;52.922;6.256;2023-10-09T01:01:34;15.35;;;8.32;;
12467;SDS011;57850;52.922;6.256;2023-10-09T01:04:04;22.20;;;8.77;;
12467;SDS011;57850;52.922;6.256;2023-10-09T01:06:32;15.93;;;8.60;;
12467;SDS011;57850;52.922;6.256;2023-10-09T01:09:09;22.90;;;8.27;;
12467;SDS011;57850;52.922;6.256;2023-10-09T01:11:37;18.00;;;9.68;;
12467;SDS011;57850;52.922;6.256;2023-10-09T01:14:13;16.20;;;9.05;;
12467;SDS011;57850;52.922;6.256;2023-10-09T01:16:40;18.05;;;9.32;;
12467;SDS011;57850;52.922;6.256;2023-10-09T01:19:11;22.52;;;10.65;;
12467;SDS011;57850;52.922;6.256;2023-10-09T01:21:49;19.98;;;11.27;;
12467;SDS011;57850;52.922;6.256;2023-10-09T01:24:17;22.13;;;11.60;;
12467;SDS011;57850;52.922;6.256;2023-10-09T01:26:45;24.17;;;12.32;;
12467;SDS011;57850;52.922;6.256;2023-10-09T01:29:15;20.10;;;12.27;;
12467;SDS011;57850;52.922;6.256;2023-10-09T01:31:44;21.35;;;11.68;;
12467;SDS011;57850;52.922;6.256;2023-10-09T01:34:17;24.10;;;13.38;;
12467;SDS011;57850;52.922;6.256;2023-10-09T01:36:49;18.85;;;11.50;;
12467;SDS011;57850;52.922;6.256;2023-10-09T01:39:22;20.90;;;11.93;;
12467;SDS011;57850;52.922;6.256;2023-10-09T01:41:53;25.10;;;13.30;;
12467;SDS011;57850;52.922;6.256;2023-10-09T01:44:30;26.25;;;13.35;;
12467;SDS011;57850;52.922;6.256;2023-10-09T01:47:00;25.95;;;12.98;;
12467;SDS011;57850;52.922;6.256;2023-10-09T01:49:32;27.70;;;14.20;;
12467;SDS011;57850;52.922;6.256;2023-10-09T01:52:01;29.92;;;14.75;;
12467;SDS011;57850;52.922;6.256;2023-10-09T01:54:34;28.77;;;13.43;;
12467;SDS011;57850;52.922;6.256;2023-10-09T01:57:03;34.15;;;16.73;;
12467;SDS011;57850;52.922;6.256;2023-10-09T01:59:34;26.02;;;14.38;;
12467;SDS011;57850;52.922;6.256;2023-10-09T02:02:03;33.10;;;16.73;;
12467;SDS011;57850;52.922;6.256;2023-10-09T02:04:39;28.90;;;16.23;;
12467;SDS011;57850;52.922;6.256;2023-10-09T02:07:06;27.33;;;16.08;;
12467;SDS011;57850;52.922;6.256;2023-10-09T02:09:35;31.73;;;17.88;;
12467;SDS011;57850;52.922;6.256;2023-10-09T02:12:10;30.75;;;16.75;;
12467;SDS011;57850;52.922;6.256;2023-10-09T02:14:37;29.40;;;16.83;;
12467;SDS011;57850;52.922;6.256;2023-10-09T02:17:06;35.17;;;17.42;;
12467;SDS011;57850;52.922;6.256;2023-10-09T02:19:42;35.03;;;18.65;;
12467;SDS011;57850;52.922;6.256;2023-10-09T02:22:13;39.50;;;19.02;;
12467;SDS011;57850;52.922;6.256;2023-10-09T02:24:43;38.92;;;21.23;;
12467;SDS011;57850;52.922;6.256;2023-10-09T02:27:23;40.20;;;19.67;;
12467;SDS011;57850;52.922;6.256;2023-10-09T02:30:07;40.25;;;21.35;;
12467;SDS011;57850;52.922;6.256;2023-10-09T02:32:41;39.95;;;22.05;;
12467;SDS011;57850;52.922;6.256;2023-10-09T02:35:09;47.80;;;21.35;;
12467;SDS011;57850;52.922;6.256;2023-10-09T02:37:45;47.67;;;22.70;;
12467;SDS011;57850;52.922;6.256;2023-10-09T02:40:14;49.47;;;23.00;;
12467;SDS011;57850;52.922;6.256;2023-10-09T02:42:49;45.65;;;22.88;;
12467;SDS011;57850;52.922;6.256;2023-10-09T02:45:16;49.78;;;23.52;;
12467;SDS011;57850;52.922;6.256;2023-10-09T02:47:44;41.20;;;22.50;;
12467;SDS011;57850;52.922;6.256;2023-10-09T02:50:13;42.40;;;21.70;;
12467;SDS011;57850;52.922;6.256;2023-10-09T02:52:46;53.38;;;25.08;;
12467;SDS011;57850;52.922;6.256;2023-10-09T02:55:19;48.30;;;23.75;;
12467;SDS011;57850;52.922;6.256;2023-10-09T02:57:50;47.90;;;22.88;;
12467;SDS011;57850;52.922;6.256;2023-10-09T03:00:29;49.42;;;23.27;;
12467;SDS011;57850;52.922;6.256;2023-10-09T03:02:57;47.15;;;23.73;;
12467;SDS011;57850;52.922;6.256;2023-10-09T03:05:24;47.67;;;24.15;;
12467;SDS011;57850;52.922;6.256;2023-10-09T03:07:54;45.97;;;24.92;;
12467;SDS011;57850;52.922;6.256;2023-10-09T03:10:23;49.30;;;23.67;;
12467;SDS011;57850;52.922;6.256;2023-10-09T03:12:50;46.75;;;24.83;;
12467;SDS011;57850;52.922;6.256;2023-10-09T03:15:18;49.08;;;23.98;;
12467;SDS011;57850;52.922;6.256;2023-10-09T03:17:45;49.10;;;26.42;;
12467;SDS011;57850;52.922;6.256;2023-10-09T03:20:13;45.17;;;25.20;;
12467;SDS011;57850;52.922;6.256;2023-10-09T03:22:42;55.35;;;27.08;;
12467;SDS011;57850;52.922;6.256;2023-10-09T03:25:11;49.40;;;25.15;;
12467;SDS011;57850;52.922;6.256;2023-10-09T03:27:40;55.05;;;25.90;;
12467;SDS011;57850;52.922;6.256;2023-10-09T03:30:11;52.47;;;25.38;;
12467;SDS011;57850;52.922;6.256;2023-10-09T03:32:42;51.70;;;25.40;;
12467;SDS011;57850;52.922;6.256;2023-10-09T03:35:10;49.80;;;24.65;;
12467;SDS011;57850;52.922;6.256;2023-10-09T03:37:41;50.17;;;24.40;;
12467;SDS011;57850;52.922;6.256;2023-10-09T03:40:09;49.05;;;25.17;;
12467;SDS011;57850;52.922;6.256;2023-10-09T03:42:44;49.97;;;23.85;;
12467;SDS011;57850;52.922;6.256;2023-10-09T03:45:10;45.97;;;23.92;;
12467;SDS011;57850;52.922;6.256;2023-10-09T03:47:49;48.10;;;25.48;;
12467;SDS011;57850;52.922;6.256;2023-10-09T03:50:21;56.67;;;26.35;;
12467;SDS011;57850;52.922;6.256;2023-10-09T03:52:52;46.35;;;25.15;;
12467;SDS011;57850;52.922;6.256;2023-10-09T03:55:20;53.35;;;25.75;;
12467;SDS011;57850;52.922;6.256;2023-10-09T03:57:48;49.65;;;24.63;;
12467;SDS011;57850;52.922;6.256;2023-10-09T04:00:15;47.85;;;23.75;;
12467;SDS011;57850;52.922;6.256;2023-10-09T04:02:53;49.60;;;25.08;;
12467;SDS011;57850;52.922;6.256;2023-10-09T04:05:20;52.05;;;25.73;;
12467;SDS011;57850;52.922;6.256;2023-10-09T04:07:47;54.75;;;26.38;;
12467;SDS011;57850;52.922;6.256;2023-10-09T04:10:14;46.53;;;24.70;;
12467;SDS011;57850;52.922;6.256;2023-10-09T04:12:59;44.17;;;22.65;;
12467;SDS011;57850;52.922;6.256;2023-10-09T04:15:28;43.88;;;23.55;;
12467;SDS011;57850;52.922;6.256;2023-10-09T04:17:55;47.17;;;24.45;;
12467;SDS011;57850;52.922;6.256;2023-10-09T04:20:22;51.15;;;23.75;;
12467;SDS011;57850;52.922;6.256;2023-10-09T04:23:05;41.05;;;23.60;;
12467;SDS011;57850;52.922;6.256;2023-10-09T04:25:32;42.75;;;22.50;;
12467;SDS011;57850;52.922;6.256;2023-10-09T04:28:08;47.53;;;24.23;;
12467;SDS011;57850;52.922;6.256;2023-10-09T04:30:44;45.88;;;22.35;;
12467;SDS011;57850;52.922;6.256;2023-10-09T04:33:18;39.38;;;23.30;;
12467;SDS011;57850;52.922;6.256;2023-10-09T04:36:00;37.28;;;21.23;;
12467;SDS011;57850;52.922;6.256;2023-10-09T04:38:47;37.38;;;20.88;;
12467;SDS011;57850;52.922;6.256;2023-10-09T04:41:40;41.50;;;20.83;;
12467;SDS011;57850;52.922;6.256;2023-10-09T04:44:19;43.13;;;21.27;;
12467;SDS011;57850;52.922;6.256;2023-10-09T04:46:44;38.80;;;20.17;;
12467;SDS011;57850;52.922;6.256;2023-10-09T04:49:30;34.72;;;19.60;;
12467;SDS011;57850;52.922;6.256;2023-10-09T04:52:10;36.30;;;19.00;;
12467;SDS011;57850;52.922;6.256;2023-10-09T04:54:44;34.83;;;18.95;;
12467;SDS011;57850;52.922;6.256;2023-10-09T04:57:30;33.67;;;19.38;;
12467;SDS011;57850;52.922;6.256;2023-10-09T05:00:05;30.98;;;18.50;;
12467;SDS011;57850;52.922;6.256;2023-10-09T05:02:47;32.25;;;18.15;;
12467;SDS011;57850;52.922;6.256;2023-10-09T05:05:19;35.35;;;17.05;;
12467;SDS011;57850;52.922;6.256;2023-10-09T05:08:13;33.33;;;18.23;;
12467;SDS011;57850;52.922;6.256;2023-10-09T05:10:44;32.60;;;18.25;;
12467;SDS011;57850;52.922;6.256;2023-10-09T05:13:31;27.85;;;16.50;;
12467;SDS011;57850;52.922;6.256;2023-10-09T05:16:09;32.03;;;15.93;;
12467;SDS011;57850;52.922;6.256;2023-10-09T05:18:41;31.70;;;16.48;;
12467;SDS011;57850;52.922;6.256;2023-10-09T05:21:10;26.58;;;15.48;;
12467;SDS011;57850;52.922;6.256;2023-10-09T05:23:50;25.48;;;14.95;;
12467;SDS011;57850;52.922;6.256;2023-10-09T05:26:38;29.98;;;15.88;;
12467;SDS011;57850;52.922;6.256;2023-10-09T05:29:16;27.85;;;15.18;;
12467;SDS011;57850;52.922;6.256;2023-10-09T05:31:46;24.15;;;13.60;;
12467;SDS011;57850;52.922;6.256;2023-10-09T05:34:28;28.42;;;14.38;;
12467;SDS011;57850;52.922;6.256;2023-10-09T05:36:58;22.75;;;13.75;;
12467;SDS011;57850;52.922;6.256;2023-10-09T05:39:42;25.00;;;13.63;;
12467;SDS011;57850;52.922;6.256;2023-10-09T05:42:08;27.80;;;12.98;;
12467;SDS011;57850;52.922;6.256;2023-10-09T05:44:43;21.10;;;11.30;;
12467;SDS011;57850;52.922;6.256;2023-10-09T05:47:42;28.08;;;12.15;;
12467;SDS011;57850;52.922;6.256;2023-10-09T05:50:18;18.63;;;11.45;;
12467;SDS011;57850;52.922;6.256;2023-10-09T05:53:05;27.00;;;10.93;;
12467;SDS011;57850;52.922;6.256;2023-10-09T05:55:35;21.98;;;10.57;;
12467;SDS011;57850;52.922;6.256;2023-10-09T05:58:19;19.92;;;10.38;;
12467;SDS011;57850;52.922;6.256;2023-10-09T06:01:03;18.35;;;8.77;;
12467;SDS011;57850;52.922;6.256;2023-10-09T06:03:48;19.77;;;10.27;;
12467;SDS011;57850;52.922;6.256;2023-10-09T06:06:18;17.20;;;9.52;;
12467;SDS011;57850;52.922;6.256;2023-10-09T06:08:58;16.10;;;8.40;;
12467;SDS011;57850;52.922;6.256;2023-10-09T06:11:51;14.52;;;8.35;;
12467;SDS011;57850;52.922;6.256;2023-10-09T06:14:22;19.52;;;9.68;;
12467;SDS011;57850;52.922;6.256;2023-10-09T06:16:50;18.83;;;9.15;;
12467;SDS011;57850;52.922;6.256;2023-10-09T06:19:27;20.83;;;8.68;;
12467;SDS011;57850;52.922;6.256;2023-10-09T06:21:53;13.65;;;8.00;;
12467;SDS011;57850;52.922;6.256;2023-10-09T06:24:55;19.30;;;8.88;;
12467;SDS011;57850;52.922;6.256;2023-10-09T06:27:22;16.77;;;9.20;;
12467;SDS011;57850;52.922;6.256;2023-10-09T06:30:13;14.93;;;8.70;;
12467;SDS011;57850;52.922;6.256;2023-10-09T06:32:48;23.63;;;9.07;;
12467;SDS011;57850;52.922;6.256;2023-10-09T06:35:24;16.52;;;8.73;;
12467;SDS011;57850;52.922;6.256;2023-10-09T06:37:57;17.67;;;9.30;;
12467;SDS011;57850;52.922;6.256;2023-10-09T06:40:46;14.20;;;7.93;;
12467;SDS011;57850;52.922;6.256;2023-10-09T06:43:31;18.23;;;8.60;;
12467;SDS011;57850;52.922;6.256;2023-10-09T06:46:02;18.63;;;7.20;;
12467;SDS011;57850;52.922;6.256;2023-10-09T06:48:42;18.80;;;8.05;;
12467;SDS011;57850;52.922;6.256;2023-10-09T06:51:22;19.02;;;8.52;;
12467;SDS011;57850;52.922;6.256;2023-10-09T06:54:06;16.05;;;7.60;;
12467;SDS011;57850;52.922;6.256;2023-10-09T06:56:43;16.95;;;7.47;;
12467;SDS011;57850;52.922;6.256;2023-10-09T06:59:27;13.45;;;8.23;;
12467;SDS011;57850;52.922;6.256;2023-10-09T07:02:07;16.20;;;8.38;;
12467;SDS011;57850;52.922;6.256;2023-10-09T07:04:51;17.60;;;8.32;;
12467;SDS011;57850;52.922;6.256;2023-10-09T07:07:21;19.25;;;8.25;;
12467;SDS011;57850;52.922;6.256;2023-10-09T07:09:49;17.80;;;8.15;;
12467;SDS011;57850;52.922;6.256;2023-10-09T07:12:34;13.75;;;7.60;;
12467;SDS011;57850;52.922;6.256;2023-10-09T07:15:08;13.75;;;7.80;;
12467;SDS011;57850;52.922;6.256;2023-10-09T07:17:52;18.48;;;7.63;;
12467;SDS011;57850;52.922;6.256;2023-10-09T07:20:20;15.77;;;8.32;;
12467;SDS011;57850;52.922;6.256;2023-10-09T07:23:11;16.50;;;8.07;;
12467;SDS011;57850;52.922;6.256;2023-10-09T07:25:41;11.93;;;7.05;;
12467;SDS011;57850;52.922;6.256;2023-10-09T07:28:20;12.57;;;7.97;;
12467;SDS011;57850;52.922;6.256;2023-10-09T07:31:07;16.40;;;7.40;;
12467;SDS011;57850;52.922;6.256;2023-10-09T07:33:49;16.90;;;8.00;;
12467;SDS011;57850;52.922;6.256;2023-10-09T07:36:33;17.65;;;8.57;;
12467;SDS011;57850;52.922;6.256;2023-10-09T07:39:05;18.50;;;8.20;;
12467;SDS011;57850;52.922;6.256;2023-10-09T07:41:40;14.30;;;7.88;;
12467;SDS011;57850;52.922;6.256;2023-10-09T07:44:20;13.32;;;7.95;;
12467;SDS011;57850;52.922;6.256;2023-10-09T07:47:02;16.80;;;7.95;;
12467;SDS011;57850;52.922;6.256;2023-10-09T07:49:47;14.63;;;8.20;;
12467;SDS011;57850;52.922;6.256;2023-10-09T07:52:18;15.73;;;8.20;;
12467;SDS011;57850;52.922;6.256;2023-10-09T07:54:49;17.60;;;8.65;;
12467;SDS011;57850;52.922;6.256;2023-10-09T07:57:19;22.38;;;9.00;;
12467;SDS011;57850;52.922;6.256;2023-10-09T07:59:54;13.80;;;7.72;;
12467;SDS011;57850;52.922;6.256;2023-10-09T08:02:26;14.98;;;8.35;;
12467;SDS011;57850;52.922;6.256;2023-10-09T08:04:58;15.88;;;8.48;;
12467;SDS011;57850;52.922;6.256;2023-10-09T08:07:29;15.35;;;8.52;;
12467;SDS011;57850;52.922;6.256;2023-10-09T08:10:00;13.88;;;7.95;;
12467;SDS011;57850;52.922;6.256;2023-10-09T08:12:45;16.25;;;9.95;;
12467;SDS011;57850;52.922;6.256;2023-10-09T08:15:24;19.85;;;8.85;;
12467;SDS011;57850;52.922;6.256;2023-10-09T08:17:53;17.13;;;8.48;;
12467;SDS011;57850;52.922;6.256;2023-10-09T08:20:24;13.95;;;8.95;;
12467;SDS011;57850;52.922;6.256;2023-10-09T08:22:51;13.85;;;8.27;;
12467;SDS011;57850;52.922;6.256;2023-10-09T08:25:22;14.95;;;7.78;;
12467;SDS011;57850;52.922;6.256;2023-10-09T08:27:52;14.88;;;8.15;;
12467;SDS011;57850;52.922;6.256;2023-10-09T08:30:22;13.15;;;8.27;;
12467;SDS011;57850;52.922;6.256;2023-10-09T08:32:54;18.60;;;8.52;;
12467;SDS011;57850;52.922;6.256;2023-10-09T08:35:49;15.48;;;8.18;;
12467;SDS011;57850;52.922;6.256;2023-10-09T08:38:16;21.60;;;8.07;;
12467;SDS011;57850;52.922;6.256;2023-10-09T08:40:49;13.48;;;7.18;;
12467;SDS011;57850;52.922;6.256;2023-10-09T08:43:20;23.05;;;8.57;;
12467;SDS011;57850;52.922;6.256;2023-10-09T08:45:48;17.88;;;9.23;;
12467;SDS011;57850;52.922;6.256;2023-10-09T08:48:17;14.93;;;7.47;;
12467;SDS011;57850;52.922;6.256;2023-10-09T08:50:44;17.42;;;8.15;;
12467;SDS011;57850;52.922;6.256;2023-10-09T08:53:15;18.27;;;8.27;;
12467;SDS011;57850;52.922;6.256;2023-10-09T08:55:43;20.80;;;8.02;;
12467;SDS011;57850;52.922;6.256;2023-10-09T08:58:13;20.30;;;8.00;;
12467;SDS011;57850;52.922;6.256;2023-10-09T09:00:43;14.50;;;7.68;;
12467;SDS011;57850;52.922;6.256;2023-10-09T09:03:10;23.67;;;8.45;;
12467;SDS011;57850;52.922;6.256;2023-10-09T09:05:37;14.93;;;7.63;;
12467;SDS011;57850;52.922;6.256;2023-10-09T09:08:04;18.08;;;8.63;;
12467;SDS011;57850;52.922;6.256;2023-10-09T09:10:50;18.65;;;9.07;;
12467;SDS011;57850;52.922;6.256;2023-10-09T09:13:24;19.20;;;7.85;;
12467;SDS011;57850;52.922;6.256;2023-10-09T09:15:56;18.63;;;8.70;;
12467;SDS011;57850;52.922;6.256;2023-10-09T09:18:23;16.77;;;8.38;;
12467;SDS011;57850;52.922;6.256;2023-10-09T09:20:57;14.07;;;8.05;;
12467;SDS011;57850;52.922;6.256;2023-10-09T09:23:24;20.02;;;7.60;;
12467;SDS011;57850;52.922;6.256;2023-10-09T09:25:51;16.65;;;8.20;;
12467;SDS011;57850;52.922;6.256;2023-10-09T09:28:25;18.23;;;7.45;;
12467;SDS011;57850;52.922;6.256;2023-10-09T09:31:03;19.67;;;9.57;;
12467;SDS011;57850;52.922;6.256;2023-10-09T09:33:38;15.07;;;7.82;;
12467;SDS011;57850;52.922;6.256;2023-10-09T09:36:05;21.17;;;9.75;;
12467;SDS011;57850;52.922;6.256;2023-10-09T09:38:35;16.80;;;9.13;;
12467;SDS011;57850;52.922;6.256;2023-10-09T09:41:12;19.50;;;8.00;;
12467;SDS011;57850;52.922;6.256;2023-10-09T09:43:50;17.13;;;8.20;;
12467;SDS011;57850;52.922;6.256;2023-10-09T09:46:21;16.10;;;8.25;;
12467;SDS011;57850;52.922;6.256;2023-10-09T09:48:57;19.23;;;8.50;;
12467;SDS011;57850;52.922;6.256;2023-10-09T09:51:29;17.00;;;8.95;;
12467;SDS011;57850;52.922;6.256;2023-10-09T09:53:55;17.67;;;8.68;;
12467;SDS011;57850;52.922;6.256;2023-10-09T09:56:23;22.67;;;9.13;;
12467;SDS011;57850;52.922;6.256;2023-10-09T09:58:53;18.38;;;8.85;;
12467;SDS011;57850;52.922;6.256;2023-10-09T10:01:23;19.38;;;8.23;;
12467;SDS011;57850;52.922;6.256;2023-10-09T10:03:58;15.40;;;8.32;;
12467;SDS011;57850;52.922;6.256;2023-10-09T10:06:31;15.82;;;9.38;;
12467;SDS011;57850;52.922;6.256;2023-10-09T10:09:00;19.02;;;8.93;;
12467;SDS011;57850;52.922;6.256;2023-10-09T10:11:41;20.90;;;7.80;;
12467;SDS011;57850;52.922;6.256;2023-10-09T10:14:10;16.33;;;7.78;;
12467;SDS011;57850;52.922;6.256;2023-10-09T10:16:59;17.70;;;8.18;;
12467;SDS011;57850;52.922;6.256;2023-10-09T10:19:36;16.00;;;7.95;;
12467;SDS011;57850;52.922;6.256;2023-10-09T10:22:49;11.98;;;7.00;;
12467;SDS011;57850;52.922;6.256;2023-10-09T10:25:31;17.27;;;7.55;;
12467;SDS011;57850;52.922;6.256;2023-10-09T10:28:16;14.18;;;7.03;;
12467;SDS011;57850;52.922;6.256;2023-10-09T10:31:02;16.30;;;6.72;;
12467;SDS011;57850;52.922;6.256;2023-10-09T10:33:34;15.85;;;7.80;;
12467;SDS011;57850;52.922;6.256;2023-10-09T10:36:32;14.43;;;7.10;;
12467;SDS011;57850;52.922;6.256;2023-10-09T10:38:59;14.75;;;7.88;;
12467;SDS011;57850;52.922;6.256;2023-10-09T10:41:34;17.75;;;7.55;;
12467;SDS011;57850;52.922;6.256;2023-10-09T10:44:15;19.70;;;7.57;;
12467;SDS011;57850;52.922;6.256;2023-10-09T10:47:08;16.65;;;8.15;;
12467;SDS011;57850;52.922;6.256;2023-10-09T10:49:47;12.57;;;7.55;;
12467;SDS011;57850;52.922;6.256;2023-10-09T10:52:23;20.40;;;7.55;;
12467;SDS011;57850;52.922;6.256;2023-10-09T10:55:07;16.02;;;7.70;;
12467;SDS011;57850;52.922;6.256;2023-10-09T10:57:42;20.50;;;8.57;;
12467;SDS011;57850;52.922;6.256;2023-10-09T11:00:26;18.48;;;8.32;;
12467;SDS011;57850;52.922;6.256;2023-10-09T11:03:17;13.88;;;7.43;;
12467;SDS011;57850;52.922;6.256;2023-10-09T11:05:48;17.05;;;7.47;;
12467;SDS011;57850;52.922;6.256;2023-10-09T11:08:16;19.40;;;8.32;;
12467;SDS011;57850;52.922;6.256;2023-10-09T11:10:48;23.65;;;9.38;;
12467;SDS011;57850;52.922;6.256;2023-10-09T11:13:22;13.15;;;6.32;;
12467;SDS011;57850;52.922;6.256;2023-10-09T11:16:00;16.75;;;7.47;;
12467;SDS011;57850;52.922;6.256;2023-10-09T11:18:55;12.07;;;6.70;;
12467;SDS011;57850;52.922;6.256;2023-10-09T11:21:29;11.15;;;6.20;;
12467;SDS011;57850;52.922;6.256;2023-10-09T11:24:05;12.43;;;5.18;;
12467;SDS011;57850;52.922;6.256;2023-10-09T11:26:51;10.38;;;6.45;;
12467;SDS011;57850;52.922;6.256;2023-10-09T11:29:22;11.07;;;6.22;;
12467;SDS011;57850;52.922;6.256;2023-10-09T11:32:01;13.10;;;6.10;;
12467;SDS011;57850;52.922;6.256;2023-10-09T11:34:31;14.43;;;5.63;;
12467;SDS011;57850;52.922;6.256;2023-10-09T11:37:00;10.23;;;5.55;;
12467;SDS011;57850;52.922;6.256;2023-10-09T11:39:28;13.43;;;5.05;;
12467;SDS011;57850;52.922;6.256;2023-10-09T11:42:01;9.93;;;5.88;;
12467;SDS011;57850;52.922;6.256;2023-10-09T11:44:38;10.77;;;5.97;;
12467;SDS011;57850;52.922;6.256;2023-10-09T11:47:06;9.95;;;5.63;;
12467;SDS011;57850;52.922;6.256;2023-10-09T11:49:59;8.73;;;5.35;;
12467;SDS011;57850;52.922;6.256;2023-10-09T11:52:54;15.35;;;5.93;;
12467;SDS011;57850;52.922;6.256;2023-10-09T11:55:34;8.75;;;5.40;;
12467;SDS011;57850;52.922;6.256;2023-10-09T11:58:04;7.22;;;4.57;;
12467;SDS011;57850;52.922;6.256;2023-10-09T12:00:30;14.35;;;5.07;;
12467;SDS011;57850;52.922;6.256;2023-10-09T12:03:07;11.43;;;4.50;;
12467;SDS011;57850;52.922;6.256;2023-10-09T12:05:35;7.53;;;4.70;;
12467;SDS011;57850;52.922;6.256;2023-10-09T12:08:02;12.48;;;4.85;;
12467;SDS011;57850;52.922;6.256;2023-10-09T12:10:33;10.93;;;4.65;;
12467;SDS011;57850;52.922;6.256;2023-10-09T12:13:03;11.98;;;4.00;;
12467;SDS011;57850;52.922;6.256;2023-10-09T12:15:30;11.98;;;4.40;;
12467;SDS011;57850;52.922;6.256;2023-10-09T12:18:02;8.18;;;4.68;;
12467;SDS011;57850;52.922;6.256;2023-10-09T12:20:32;6.55;;;3.65;;
12467;SDS011;57850;52.922;6.256;2023-10-09T12:23:00;10.73;;;4.55;;
12467;SDS011;57850;52.922;6.256;2023-10-09T12:25:29;12.70;;;4.60;;
12467;SDS011;57850;52.922;6.256;2023-10-09T12:27:57;9.27;;;5.05;;
12467;SDS011;57850;52.922;6.256;2023-10-09T12:30:26;8.40;;;4.38;;
12467;SDS011;57850;52.922;6.256;2023-10-09T12:32:53;8.73;;;3.58;;
12467;SDS011;57850;52.922;6.256;2023-10-09T12:35:22;8.07;;;3.42;;
12467;SDS011;57850;52.922;6.256;2023-10-09T12:37:50;7.88;;;4.05;;
12467;SDS011;57850;52.922;6.256;2023-10-09T12:40:18;6.90;;;3.30;;
12467;SDS011;57850;52.922;6.256;2023-10-09T12:42:49;8.73;;;4.03;;
12467;SDS011;57850;52.922;6.256;2023-10-09T12:45:17;8.25;;;3.78;;
12467;SDS011;57850;52.922;6.256;2023-10-09T12:47:50;9.75;;;4.93;;
12467;SDS011;57850;52.922;6.256;2023-10-09T12:50:17;10.48;;;4.20;;
12467;SDS011;57850;52.922;6.256;2023-10-09T12:52:52;6.40;;;3.75;;
12467;SDS011;57850;52.922;6.256;2023-10-09T12:55:21;7.45;;;4.18;;
12467;SDS011;57850;52.922;6.256;2023-10-09T12:57:56;9.32;;;4.13;;
12467;SDS011;57850;52.922;6.256;2023-10-09T13:00:26;7.40;;;3.67;;
12467;SDS011;57850;52.922;6.256;2023-10-09T13:02:57;7.90;;;4.05;;
12467;SDS011;57850;52.922;6.256;2023-10-09T13:05:26;7.97;;;4.05;;
12467;SDS011;57850;52.922;6.256;2023-10-09T13:07:52;10.43;;;4.32;;
12467;SDS011;57850;52.922;6.256;2023-10-09T13:10:21;9.45;;;4.13;;
12467;SDS011;57850;52.922;6.256;2023-10-09T13:12:49;10.60;;;4.20;;
12467;SDS011;57850;52.922;6.256;2023-10-09T13:15:20;7.28;;;3.95;;
12467;SDS011;57850;52.922;6.256;2023-10-09T13:17:47;8.90;;;3.50;;
12467;SDS011;57850;52.922;6.256;2023-10-09T13:20:13;11.07;;;4.85;;
12467;SDS011;57850;52.922;6.256;2023-10-09T13:22:41;9.52;;;3.80;;
12467;SDS011;57850;52.922;6.256;2023-10-09T13:25:10;5.60;;;3.55;;
12467;SDS011;57850;52.922;6.256;2023-10-09T13:27:42;6.97;;;3.97;;
12467;SDS011;57850;52.922;6.256;2023-10-09T13:30:16;6.38;;;3.25;;
12467;SDS011;57850;52.922;6.256;2023-10-09T13:32:47;10.70;;;3.88;;
12467;SDS011;57850;52.922;6.256;2023-10-09T13:35:14;9.13;;;3.90;;
12467;SDS011;57850;52.922;6.256;2023-10-09T13:37:43;9.68;;;3.78;;
12467;SDS011;57850;52.922;6.256;2023-10-09T13:40:19;9.05;;;3.60;;
12467;SDS011;57850;52.922;6.256;2023-10-09T13:42:53;9.63;;;3.65;;
12467;SDS011;57850;52.922;6.256;2023-10-09T13:45:24;6.78;;;3.72;;
12467;SDS011;57850;52.922;6.256;2023-10-09T13:47:53;7.45;;;3.63;;
12467;SDS011;57850;52.922;6.256;2023-10-09T13:50:20;11.38;;;3.10;;
12467;SDS011;57850;52.922;6.256;2023-10-09T13:52:47;7.75;;;3.05;;
12467;SDS011;57850;52.922;6.256;2023-10-09T13:55:14;11.60;;;3.95;;
12467;SDS011;57850;52.922;6.256;2023-10-09T13:57:41;10.25;;;3.40;;
12467;SDS011;57850;52.922;6.256;2023-10-09T14:00:12;6.22;;;3.00;;
12467;SDS011;57850;52.922;6.256;2023-10-09T14:02:42;6.20;;;2.83;;
12467;SDS011;57850;52.922;6.256;2023-10-09T14:05:11;6.43;;;3.20;;
12467;SDS011;57850;52.922;6.256;2023-10-09T14:07:38;5.20;;;2.80;;
12467;SDS011;57850;52.922;6.256;2023-10-09T14:10:07;10.20;;;3.38;;
12467;SDS011;57850;52.922;6.256;2023-10-09T14:12:42;6.30;;;3.08;;
12467;SDS011;57850;52.922;6.256;2023-10-09T14:15:09;6.85;;;3.17;;
12467;SDS011;57850;52.922;6.256;2023-10-09T14:17:42;6.80;;;3.45;;
12467;SDS011;57850;52.922;6.256;2023-10-09T14:20:11;9.07;;;3.58;;
12467;SDS011;57850;52.922;6.256;2023-10-09T14:22:56;5.03;;;3.33;;
12467;SDS011;57850;52.922;6.256;2023-10-09T14:25:28;8.10;;;4.22;;
12467;SDS011;57850;52.922;6.256;2023-10-09T14:27:55;7.32;;;4.13;;
12467;SDS011;57850;52.922;6.256;2023-10-09T14:30:24;9.05;;;3.22;;
12467;SDS011;57850;52.922;6.256;2023-10-09T14:32:55;7.78;;;3.55;;
12467;SDS011;57850;52.922;6.256;2023-10-09T14:35:22;8.93;;;3.70;;
12467;SDS011;57850;52.922;6.256;2023-10-09T14:37:52;10.93;;;3.67;;
12467;SDS011;57850;52.922;6.256;2023-10-09T14:40:18;9.02;;;3.88;;
12467;SDS011;57850;52.922;6.256;2023-10-09T14:42:54;10.60;;;3.60;;
12467;SDS011;57850;52.922;6.256;2023-10-09T14:45:24;6.93;;;4.15;;
12467;SDS011;57850;52.922;6.256;2023-10-09T14:47:52;9.70;;;3.85;;
12467;SDS011;57850;52.922;6.256;2023-10-09T14:50:19;6.45;;;4.28;;
12467;SDS011;57850;52.922;6.256;2023-10-09T14:52:48;6.13;;;3.30;;
12467;SDS011;57850;52.922;6.256;2023-10-09T14:55:15;7.38;;;3.65;;
12467;SDS011;57850;52.922;6.256;2023-10-09T14:57:46;5.07;;;2.97;;
12467;SDS011;57850;52.922;6.256;2023-10-09T15:00:15;5.85;;;3.55;;
12467;SDS011;57850;52.922;6.256;2023-10-09T15:02:49;12.90;;;3.63;;
12467;SDS011;57850;52.922;6.256;2023-10-09T15:05:16;7.57;;;3.38;;
12467;SDS011;57850;52.922;6.256;2023-10-09T15:07:43;6.07;;;3.75;;
12467;SDS011;57850;52.922;6.256;2023-10-09T15:10:10;11.18;;;3.30;;